createdAt,value
2022-08-04T00:00:22.187Z,22.20
2022-08-04T00:02:33.470Z,21.63
2022-08-04T00:05:01.295Z,22.39
2022-08-04T00:07:44.349Z,22.11
2022-08-04T00:10:01.572Z,22.00
2022-08-04T00:12:08.480Z,21.98
2022-08-04T00:14:16.476Z,22.27
2022-08-04T00:16:20.829Z,22.07
2022-08-04T00:18:56.418Z,22.32
2022-08-04T00:21:05.325Z,22.36
2022-08-04T00:23:09.288Z,22.37
2022-08-04T00:25:12.359Z,22.23
2022-08-04T00:27:15.797Z,22.17
2022-08-04T00:29:18.585Z,21.55
2022-08-04T00:31:54.332Z,22.21
2022-08-04T00:33:46.825Z,22.09
2022-08-04T00:35:50.105Z,22.16
2022-08-04T00:37:53.555Z,22.06
2022-08-04T00:39:57.456Z,22.25
2022-08-04T00:42:37.435Z,22.17
2022-08-04T00:46:15.640Z,21.86
2022-08-04T00:48:37.787Z,21.86
2022-08-04T00:51:08.525Z,21.53
2022-08-04T00:53:30.061Z,21.79
2022-08-04T00:56:15.541Z,21.75
2022-08-04T00:59:08.063Z,21.76
2022-08-04T01:01:52.985Z,21.75
2022-08-04T01:04:19.480Z,21.56
2022-08-04T01:07:10.539Z,21.62
2022-08-04T01:09:54.082Z,21.78
2022-08-04T01:12:23.190Z,21.63
2022-08-04T01:14:43.595Z,21.76
2022-08-04T01:16:53.656Z,21.72
2022-08-04T01:19:00.641Z,21.63
2022-08-04T01:21:30.205Z,21.65
2022-08-04T01:24:16.321Z,21.60
2022-08-04T01:26:44.144Z,21.57
2022-08-04T01:29:09.548Z,21.33
2022-08-04T01:31:24.065Z,21.40
2022-08-04T01:33:30.370Z,21.17
2022-08-04T01:35:55.690Z,21.38
2022-08-04T01:38:20.076Z,21.47
2022-08-04T01:40:27.881Z,21.18
2022-08-04T01:42:34.131Z,21.45
2022-08-04T01:44:39.818Z,21.32
2022-08-04T01:46:42.644Z,21.07
2022-08-04T01:48:48.003Z,21.35
2022-08-04T01:50:53.937Z,21.05
2022-08-04T01:52:56.809Z,21.03
2022-08-04T01:55:01.647Z,21.06
2022-08-04T01:57:37.496Z,20.94
2022-08-04T01:59:31.064Z,21.17
2022-08-04T02:01:36.761Z,21.14
2022-08-04T02:04:20.674Z,20.93
2022-08-04T02:06:28.326Z,20.83
2022-08-04T02:09:20.696Z,20.96
2022-08-04T02:11:23.690Z,20.66
2022-08-04T02:13:38.289Z,20.65
2022-08-04T02:16:09.107Z,20.82
2022-08-04T02:18:27.277Z,20.79
2022-08-04T02:20:41.218Z,20.36
2022-08-04T02:23:06.838Z,20.73
2022-08-04T02:25:11.964Z,20.80
2022-08-04T02:27:15.440Z,20.80
2022-08-04T02:29:39.445Z,20.53
2022-08-04T02:32:07.849Z,20.69
2022-08-04T02:34:25.973Z,20.76
2022-08-04T02:36:39.100Z,20.80
2022-08-04T02:39:01.340Z,20.74
2022-08-04T02:41:06.099Z,20.70
2022-08-04T02:43:10.738Z,20.56
2022-08-04T02:45:14.593Z,20.56
2022-08-04T02:47:24.410Z,20.41
2022-08-04T02:49:47.898Z,20.65
2022-08-04T02:51:57.521Z,20.50
2022-08-04T02:54:04.035Z,20.43
2022-08-04T02:56:09.289Z,20.41
2022-08-04T02:58:15.419Z,20.43
2022-08-04T03:00:19.973Z,19.87
2022-08-04T03:02:40.943Z,20.27
2022-08-04T03:04:51.486Z,20.43
2022-08-04T03:07:07.995Z,20.10
2022-08-04T03:09:24.811Z,20.32
2022-08-04T03:11:45.649Z,20.29
2022-08-04T03:14:33.479Z,19.99
2022-08-04T03:17:07.287Z,20.10
2022-08-04T03:19:46.476Z,20.03
2022-08-04T03:22:22.833Z,20.03
2022-08-04T03:25:15.337Z,19.93
2022-08-04T03:28:19.087Z,19.98
2022-08-04T03:31:08.234Z,19.88
2022-08-04T03:33:57.064Z,19.68
2022-08-04T03:36:35.356Z,19.75
2022-08-04T03:39:23.228Z,19.75
2022-08-04T03:41:54.927Z,19.79
2022-08-04T03:44:27.522Z,19.85
2022-08-04T03:47:29.247Z,19.92
2022-08-04T03:50:07.564Z,19.74
2022-08-04T03:53:09.030Z,20.01
2022-08-04T03:55:58.408Z,19.97
2022-08-04T03:58:40.629Z,19.92
2022-08-04T04:02:01.336Z,19.91
2022-08-04T04:04:50.745Z,19.84
2022-08-04T04:07:36.063Z,19.88
2022-08-04T04:10:12.394Z,19.89
2022-08-04T04:12:30.745Z,19.94
2022-08-04T04:15:06.629Z,19.78
2022-08-04T04:17:17.816Z,19.99
2022-08-04T04:19:58.466Z,20.09
2022-08-04T04:22:23.304Z,20.08
2022-08-04T04:24:38.779Z,20.11
2022-08-04T04:27:10.179Z,20.13
2022-08-04T04:29:57.985Z,20.19
2022-08-04T04:32:36.244Z,20.26
2022-08-04T04:35:11.521Z,20.32
2022-08-04T04:37:48.935Z,20.04
2022-08-04T04:39:57.755Z,20.44
2022-08-04T04:42:21.347Z,20.32
2022-08-04T04:44:46.883Z,20.27
2022-08-04T04:47:03.744Z,20.54
2022-08-04T04:49:35.240Z,20.59
2022-08-04T04:52:20.622Z,20.64
2022-08-04T04:54:44.186Z,20.58
2022-08-04T04:57:23.147Z,20.79
2022-08-04T05:00:12.334Z,20.73
2022-08-04T05:02:29.478Z,20.97
2022-08-04T05:04:53.328Z,21.08
2022-08-04T05:07:50.487Z,21.20
2022-08-04T05:10:10.613Z,21.23
2022-08-04T05:14:33.264Z,21.32
2022-08-04T05:15:12.611Z,21.51
2022-08-04T05:17:30.791Z,21.61
2022-08-04T05:19:54.343Z,21.90
2022-08-04T05:22:00.603Z,22.05
2022-08-04T05:24:09.372Z,22.09
2022-08-04T05:26:18.356Z,22.30
2022-08-04T05:28:28.282Z,22.24
2022-08-04T05:30:37.071Z,22.41
2022-08-04T05:33:00.199Z,22.49
2022-08-04T05:35:09.659Z,22.69
2022-08-04T05:37:17.651Z,22.94
2022-08-04T05:39:34.168Z,23.10
2022-08-04T05:41:45.555Z,23.16
2022-08-04T05:43:50.715Z,23.25
2022-08-04T05:45:54.187Z,23.39
2022-08-04T05:47:57.067Z,23.52
2022-08-04T05:50:03.241Z,23.49
2022-08-04T05:52:09.713Z,23.85
2022-08-04T05:54:13.759Z,23.84
2022-08-04T05:56:18.072Z,24.15
2022-08-04T05:58:21.639Z,24.15
2022-08-04T06:00:40.724Z,24.41
2022-08-04T06:02:47.283Z,24.57
2022-08-04T06:04:51.590Z,24.79
2022-08-04T06:06:55.063Z,24.76
2022-08-04T06:08:58.176Z,25.01
2022-08-04T06:11:06.349Z,25.15
2022-08-04T06:13:49.202Z,24.98
2022-08-04T06:15:40.490Z,25.39
2022-08-04T06:18:35.063Z,25.50
2022-08-04T06:20:34.491Z,25.61
2022-08-04T06:22:42.332Z,25.46
2022-08-04T06:24:48.215Z,25.79
2022-08-04T06:26:52.271Z,25.87
2022-08-04T06:28:55.616Z,26.14
2022-08-04T06:32:26.968Z,26.15
2022-08-04T06:33:54.119Z,25.82
2022-08-04T06:35:59.505Z,26.60
2022-08-04T06:38:03.400Z,26.58
2022-08-04T06:40:31.122Z,26.88
2022-08-04T06:42:34.178Z,26.91
2022-08-04T06:44:41.395Z,26.99
2022-08-04T06:46:44.224Z,26.78
2022-08-04T06:48:47.742Z,27.34
2022-08-04T06:51:24.793Z,27.49
2022-08-04T06:53:15.157Z,27.69
2022-08-04T06:55:19.424Z,27.43
2022-08-04T06:57:31.245Z,28.04
2022-08-04T06:59:36.507Z,28.03
2022-08-04T07:19:09.769Z,28.41
2022-08-04T07:22:18.175Z,28.33
2022-08-04T07:27:51.071Z,29.92
2022-08-04T07:29:54.279Z,30.14
2022-08-04T07:31:58.775Z,30.32
2022-08-04T07:34:11.615Z,30.24
2022-08-04T07:36:24.197Z,30.40
2022-08-04T07:38:33.463Z,30.50
2022-08-04T07:40:41.031Z,30.72
2022-08-04T07:42:44.821Z,30.85
2022-08-04T07:44:48.171Z,30.93
2022-08-04T07:46:51.910Z,30.66
2022-08-04T07:48:55.214Z,31.00
2022-08-04T07:50:58.622Z,31.14
2022-08-04T07:53:54.318Z,31.13
2022-08-04T07:55:27.479Z,31.43
2022-08-04T07:57:40.280Z,31.48
2022-08-04T07:59:48.291Z,31.50
2022-08-04T08:01:54.965Z,31.93
2022-08-04T08:03:59.153Z,31.98
2022-08-04T08:06:31.691Z,31.95
2022-08-04T08:08:31.482Z,32.17
2022-08-04T08:10:34.069Z,32.31
2022-08-04T08:12:51.397Z,32.63
2022-08-04T08:15:22.145Z,32.94
2022-08-04T08:17:58.200Z,33.31
2022-08-04T08:20:33.338Z,33.74
2022-08-04T08:22:38.789Z,34.11
2022-08-04T08:24:42.568Z,33.70
2022-08-04T08:26:45.508Z,34.62
2022-08-04T08:28:48.552Z,34.77
2022-08-04T08:30:52.666Z,35.07
2022-08-04T08:32:55.580Z,35.40
2022-08-04T08:34:59.545Z,35.80
2022-08-04T08:37:35.098Z,36.08
2022-08-04T08:40:10.893Z,36.61
2022-08-04T08:42:53.920Z,36.97
2022-08-04T08:45:37.810Z,37.20
2022-08-04T08:48:38.058Z,37.44
2022-08-04T08:51:28.715Z,37.50
2022-08-04T08:53:40.404Z,37.37
2022-08-04T08:56:39.738Z,36.97
2022-08-04T08:59:07.342Z,36.57
2022-08-04T09:01:51.668Z,35.94
2022-08-04T09:04:04.981Z,35.85
2022-08-04T09:06:27.483Z,35.60
2022-08-04T09:09:14.170Z,35.37
2022-08-04T09:11:22.680Z,35.29
2022-08-04T09:13:35.557Z,35.02
2022-08-04T09:16:00.185Z,35.13
2022-08-04T09:18:29.582Z,35.01
2022-08-04T09:20:49.403Z,34.87
2022-08-04T09:23:26.868Z,34.84
2022-08-04T09:25:58.525Z,34.87
2022-08-04T09:28:37.228Z,34.64
2022-08-04T09:30:58.138Z,34.57
2022-08-04T09:33:45.366Z,34.89
2022-08-04T09:36:26.001Z,34.68
2022-08-04T09:38:52.429Z,34.78
2022-08-04T09:41:48.623Z,34.66
2022-08-04T09:44:50.090Z,34.95
2022-08-04T09:46:47.261Z,34.85
2022-08-04T09:49:21.815Z,34.63
2022-08-04T09:51:58.169Z,34.83
2022-08-04T09:54:29.337Z,34.86
2022-08-04T09:56:55.005Z,35.01
2022-08-04T09:59:24.405Z,35.05
2022-08-04T10:01:35.223Z,35.16
2022-08-04T10:03:45.530Z,35.25
2022-08-04T10:06:08.787Z,35.27
2022-08-04T10:08:44.622Z,35.15
2022-08-04T10:11:08.496Z,35.30
2022-08-04T10:14:01.052Z,35.22
2022-08-04T10:16:39.391Z,35.25
2022-08-04T10:18:53.209Z,35.28
2022-08-04T10:21:08.896Z,35.20
2022-08-04T10:23:56.186Z,35.25
2022-08-04T10:26:38.745Z,35.09
2022-08-04T10:28:52.462Z,35.29
2022-08-04T10:31:09.998Z,35.21
2022-08-04T10:33:26.644Z,35.27
2022-08-04T10:35:37.984Z,35.25
2022-08-04T10:38:06.575Z,35.27
2022-08-04T10:40:36.460Z,35.16
2022-08-04T10:42:50.507Z,35.37
2022-08-04T10:45:20.658Z,35.46
2022-08-04T10:47:44.324Z,35.50
2022-08-04T10:50:00.703Z,35.64
2022-08-04T10:52:31.430Z,35.80
2022-08-04T10:54:50.656Z,35.94
2022-08-04T10:57:03.867Z,36.00
2022-08-04T11:00:04.547Z,36.04
2022-08-04T11:02:40.227Z,36.13
2022-08-04T11:04:49.071Z,36.19
2022-08-04T11:06:53.185Z,35.84
2022-08-04T11:08:57.220Z,36.10
2022-08-04T11:11:07.972Z,36.28
2022-08-04T11:13:30.090Z,36.31
2022-08-04T11:15:41.044Z,36.20
2022-08-04T11:17:57.814Z,36.34
2022-08-04T11:20:34.469Z,36.42
2022-08-04T11:22:55.707Z,36.25
2022-08-04T11:25:25.048Z,36.47
2022-08-04T11:27:43.549Z,36.37
2022-08-04T11:30:09.448Z,36.35
2022-08-04T11:33:05.294Z,36.41
2022-08-04T11:35:14.184Z,36.27
2022-08-04T11:37:24.844Z,36.30
2022-08-04T11:39:43.921Z,36.53
2022-08-04T11:42:10.808Z,36.69
2022-08-04T11:44:24.375Z,36.92
2022-08-04T11:46:39.954Z,36.74
2022-08-04T11:49:29.974Z,37.12
2022-08-04T11:51:35.169Z,37.20
2022-08-04T11:53:40.137Z,37.03
2022-08-04T11:56:07.526Z,37.13
2022-08-04T11:58:07.564Z,37.02
2022-08-04T12:00:15.213Z,37.15
2022-08-04T12:02:42.334Z,37.09
2022-08-04T12:05:09.424Z,37.23
2022-08-04T12:08:12.580Z,37.28
2022-08-04T12:11:02.251Z,37.23
2022-08-04T12:13:28.724Z,37.09
2022-08-04T12:15:48.112Z,37.02
2022-08-04T12:17:59.857Z,37.07
2022-08-04T12:20:31.639Z,36.96
2022-08-04T12:22:40.668Z,36.05
2022-08-04T12:25:01.757Z,36.63
2022-08-04T12:27:31.006Z,36.88
2022-08-04T12:29:36.486Z,36.91
2022-08-04T12:31:49.761Z,37.02
2022-08-04T12:34:06.637Z,37.07
2022-08-04T12:36:40.815Z,36.80
2022-08-04T12:39:01.941Z,37.26
2022-08-04T12:41:07.442Z,37.08
2022-08-04T12:43:18.348Z,37.03
2022-08-04T12:45:22.636Z,37.32
2022-08-04T12:47:36.342Z,37.25
2022-08-04T12:50:00.958Z,37.12
2022-08-04T12:52:17.964Z,37.36
2022-08-04T12:54:32.229Z,37.32
2022-08-04T12:56:37.974Z,37.54
2022-08-04T12:58:49.515Z,37.57
2022-08-04T13:01:03.499Z,37.55
2022-08-04T13:04:06.493Z,37.65
2022-08-04T13:06:35.629Z,37.74
2022-08-04T13:08:41.844Z,37.65
2022-08-04T13:10:57.837Z,37.51
2022-08-04T13:13:06.322Z,37.42
2022-08-04T13:15:18.930Z,37.46
2022-08-04T13:17:23.037Z,37.38
2022-08-04T13:19:56.347Z,37.49
2022-08-04T13:22:05.591Z,37.39
2022-08-04T13:24:22.759Z,37.47
2022-08-04T13:26:42.585Z,37.40
2022-08-04T13:29:01.327Z,37.21
2022-08-04T13:31:24.122Z,37.21
2022-08-04T13:34:05.408Z,37.19
2022-08-04T13:36:12.394Z,37.18
2022-08-04T13:38:19.541Z,37.02
2022-08-04T13:40:30.802Z,37.15
2022-08-04T13:42:36.918Z,37.36
2022-08-04T13:44:44.431Z,37.29
2022-08-04T13:46:53.447Z,37.33
2022-08-04T13:51:25.533Z,37.40
2022-08-04T13:53:58.781Z,37.41
2022-08-04T13:56:08.349Z,37.24
2022-08-04T13:58:23.764Z,37.25
2022-08-04T14:00:46.337Z,37.16
2022-08-04T14:03:23.834Z,37.07
2022-08-04T14:05:36.908Z,36.92
2022-08-04T14:08:17.366Z,36.89
2022-08-04T14:10:22.748Z,36.84
2022-08-04T14:12:46.374Z,36.86
2022-08-04T14:14:53.071Z,36.88
2022-08-04T14:17:17.141Z,37.00
2022-08-04T14:19:29.223Z,37.07
2022-08-04T14:21:39.885Z,36.97
2022-08-04T14:23:57.820Z,36.74
2022-08-04T14:26:00.509Z,36.76
2022-08-04T14:28:06.307Z,36.46
2022-08-04T14:30:40.977Z,36.69
2022-08-04T14:34:02.945Z,36.66
2022-08-04T14:35:58.838Z,36.83
2022-08-04T14:38:11.728Z,36.80
2022-08-04T14:40:31.453Z,36.81
2022-08-04T14:42:59.859Z,36.82
2022-08-04T14:45:03.880Z,36.67
2022-08-04T14:47:13.085Z,36.74
2022-08-04T14:49:17.276Z,36.64
2022-08-04T14:51:26.282Z,36.51
2022-08-04T14:53:55.268Z,36.72
2022-08-04T14:56:00.180Z,36.68
2022-08-04T14:58:33.866Z,36.85
2022-08-04T15:00:37.446Z,36.91
2022-08-04T15:02:42.793Z,36.37
2022-08-04T15:04:46.778Z,36.36
2022-08-04T15:07:16.885Z,36.72
2022-08-04T15:09:24.221Z,36.85
2022-08-04T15:11:47.321Z,36.56
2022-08-04T15:13:49.990Z,36.78
2022-08-04T15:16:54.259Z,36.87
2022-08-04T15:19:00.800Z,36.72
2022-08-04T15:21:08.314Z,36.85
2022-08-04T15:23:11.170Z,37.00
2022-08-04T15:25:15.656Z,37.03
2022-08-04T15:27:26.686Z,37.02
2022-08-04T15:30:00.615Z,36.87
2022-08-04T15:32:09.211Z,36.83
2022-08-04T15:34:17.749Z,36.79
2022-08-04T15:36:56.126Z,36.71
2022-08-04T15:40:16.767Z,36.67
2022-08-04T15:43:09.163Z,36.68
2022-08-04T15:46:41.203Z,36.44
2022-08-04T15:48:04.998Z,36.69
2022-08-04T15:50:13.763Z,36.66
2022-08-04T15:52:59.650Z,36.76
2022-08-04T15:55:45.981Z,36.76
2022-08-04T15:58:05.442Z,36.76
2022-08-04T16:00:14.835Z,36.55
2022-08-04T16:02:36.404Z,36.86
2022-08-04T16:04:39.329Z,36.84
2022-08-04T16:06:44.626Z,36.77
2022-08-04T16:09:00.708Z,36.85
2022-08-04T16:11:05.733Z,36.83
2022-08-04T16:13:24.028Z,36.86
2022-08-04T16:16:03.899Z,36.69
2022-08-04T16:18:25.340Z,36.67
2022-08-04T16:20:36.897Z,36.62
2022-08-04T16:23:53.533Z,36.58
2022-08-04T16:25:56.582Z,36.36
2022-08-04T16:28:02.830Z,36.20
2022-08-04T16:30:15.644Z,36.12
2022-08-04T16:32:42.035Z,36.10
2022-08-04T16:35:03.732Z,35.90
2022-08-04T16:37:09.277Z,35.46
2022-08-04T16:39:19.317Z,34.96
2022-08-04T16:41:42.490Z,34.71
2022-08-04T16:43:45.048Z,34.43
2022-08-04T16:46:04.052Z,34.30
2022-08-04T16:48:11.415Z,34.09
2022-08-04T16:50:24.460Z,33.73
2022-08-04T16:52:28.334Z,33.97
2022-08-04T16:54:35.126Z,33.97
2022-08-04T16:56:37.924Z,33.67
2022-08-04T16:58:53.060Z,33.44
2022-08-04T17:00:57.578Z,33.48
2022-08-04T17:03:09.576Z,33.60
2022-08-04T17:05:39.824Z,33.49
2022-08-04T17:08:13.138Z,33.48
2022-08-04T17:10:17.301Z,33.38
2022-08-04T17:12:20.139Z,33.21
2022-08-04T17:14:31.265Z,33.27
2022-08-04T17:16:40.246Z,33.11
2022-08-04T17:18:51.192Z,33.33
2022-08-04T17:21:01.275Z,33.12
2022-08-04T17:24:14.616Z,33.11
2022-08-04T17:25:55.503Z,33.01
2022-08-04T17:28:09.616Z,33.03
2022-08-04T17:30:30.136Z,32.86
2022-08-04T17:32:35.597Z,32.85
2022-08-04T17:34:50.395Z,32.80
2022-08-04T17:36:52.981Z,32.90
2022-08-04T17:39:04.386Z,32.46
2022-08-04T17:41:19.332Z,32.69
2022-08-04T17:44:04.018Z,32.60
2022-08-04T17:46:45.433Z,32.45
2022-08-04T17:49:07.082Z,32.49
2022-08-04T17:51:17.394Z,32.26
2022-08-04T17:53:52.914Z,32.40
2022-08-04T17:56:06.771Z,32.32
2022-08-04T17:58:23.161Z,32.25
2022-08-04T18:00:28.846Z,32.16
2022-08-04T18:02:37.103Z,32.13
2022-08-04T18:05:05.115Z,32.11
2022-08-04T18:08:38.622Z,31.80
2022-08-04T18:10:32.923Z,31.59
2022-08-04T18:12:35.678Z,31.85
2022-08-04T18:14:53.699Z,31.75
2022-08-04T18:16:56.482Z,31.73
2022-08-04T18:19:10.560Z,31.62
2022-08-04T18:21:15.299Z,31.67
2022-08-04T18:23:31.975Z,31.51
2022-08-04T18:25:51.166Z,31.47
2022-08-04T18:27:57.379Z,31.48
2022-08-04T18:30:33.373Z,31.33
2022-08-04T18:32:32.997Z,31.20
2022-08-04T18:34:40.927Z,31.30
2022-08-04T18:36:59.224Z,31.17
2022-08-04T18:39:15.878Z,31.17
2022-08-04T18:41:22.689Z,30.93
2022-08-04T18:43:28.183Z,30.47
2022-08-04T18:45:34.520Z,30.69
2022-08-04T18:47:59.169Z,30.92
2022-08-04T18:52:59.775Z,30.82
2022-08-04T18:55:05.220Z,30.63
2022-08-04T18:57:58.680Z,30.54
2022-08-04T18:59:33.492Z,30.57
2022-08-04T19:02:13.064Z,30.47
2022-08-04T19:04:03.428Z,30.34
2022-08-04T19:06:52.592Z,30.15
2022-08-04T19:08:55.353Z,30.37
2022-08-04T19:11:00.838Z,30.18
2022-08-04T19:13:25.436Z,29.58
2022-08-04T19:15:34.516Z,30.05
2022-08-04T19:17:57.110Z,30.11
2022-08-04T19:20:00.881Z,29.89
2022-08-04T19:22:07.283Z,29.83
2022-08-04T19:24:31.751Z,29.95
2022-08-04T19:26:36.813Z,29.62
2022-08-04T19:28:40.399Z,29.70
2022-08-04T19:30:43.528Z,29.78
2022-08-04T19:32:48.390Z,29.13
2022-08-04T19:34:52.136Z,29.56
2022-08-04T19:36:54.895Z,29.59
2022-08-04T19:38:58.493Z,29.54
2022-08-04T19:41:14.248Z,29.08
2022-08-04T19:43:36.378Z,29.44
2022-08-04T19:45:46.611Z,29.42
2022-08-04T19:48:16.138Z,29.41
2022-08-04T19:50:13.739Z,28.70
2022-08-04T19:52:34.255Z,28.51
2022-08-04T19:54:40.887Z,28.67
2022-08-04T19:56:46.499Z,28.64
2022-08-04T19:58:52.495Z,28.56
2022-08-04T20:00:58.178Z,29.05
2022-08-04T20:03:01.195Z,28.87
2022-08-04T20:05:04.384Z,29.08
2022-08-04T20:07:23.865Z,28.91
2022-08-04T20:09:27.226Z,28.03
2022-08-04T20:11:29.923Z,27.75
2022-08-04T20:13:37.742Z,28.77
2022-08-04T20:15:55.517Z,28.41
2022-08-04T20:18:36.433Z,28.56
2022-08-04T20:20:33.690Z,28.69
2022-08-04T20:22:52.498Z,28.68
2022-08-04T20:25:01.085Z,28.65
2022-08-04T20:27:23.569Z,28.51
2022-08-04T20:29:40.114Z,28.33
2022-08-04T20:31:43.621Z,28.60
2022-08-04T20:33:49.050Z,28.45
2022-08-04T20:36:05.148Z,28.38
2022-08-04T20:38:33.209Z,28.31
2022-08-04T20:40:36.882Z,28.12
2022-08-04T20:42:47.123Z,28.48
2022-08-04T20:44:53.588Z,28.55
2022-08-04T20:46:57.251Z,28.25
2022-08-04T20:49:00.022Z,28.11
2022-08-04T20:51:03.640Z,28.38
2022-08-04T20:53:16.367Z,28.30
2022-08-04T20:55:21.269Z,28.24
2022-08-04T20:57:49.273Z,28.22
2022-08-04T20:59:59.863Z,28.33
2022-08-04T21:02:05.686Z,28.31
2022-08-04T21:04:28.851Z,28.15
2022-08-04T21:06:34.331Z,28.20
2022-08-04T21:08:39.935Z,27.92
2022-08-04T21:10:47.526Z,27.62
2022-08-04T21:12:50.587Z,28.09
2022-08-04T21:14:54.588Z,27.99
2022-08-04T21:17:00.105Z,27.95
2022-08-04T21:19:04.201Z,27.96
2022-08-04T21:21:14.683Z,27.93
2022-08-04T21:23:19.303Z,27.88
2022-08-04T21:25:22.612Z,27.89
2022-08-04T21:27:25.502Z,27.85
2022-08-04T21:29:35.258Z,27.86
2022-08-04T21:31:50.375Z,27.64
2022-08-04T21:33:53.944Z,27.58
2022-08-04T21:35:56.542Z,27.63
2022-08-04T21:38:01.153Z,27.21
2022-08-04T21:40:13.723Z,27.51
2022-08-04T21:42:42.297Z,27.62
2022-08-04T21:44:41.068Z,27.11
2022-08-04T21:46:44.938Z,27.27
2022-08-04T21:48:50.792Z,27.13
2022-08-04T21:50:55.097Z,27.30
2022-08-04T21:52:59.055Z,27.17
2022-08-04T21:55:02.866Z,27.01
2022-08-04T21:57:06.323Z,27.16
2022-08-04T21:59:14.090Z,26.91
2022-08-04T22:01:21.781Z,26.90
2022-08-04T22:03:51.715Z,26.87
2022-08-04T22:05:57.034Z,27.07
2022-08-04T22:07:59.744Z,27.03
2022-08-04T22:10:06.121Z,26.96
2022-08-04T22:12:11.840Z,26.99
2022-08-04T22:14:14.935Z,26.93
2022-08-04T22:16:17.759Z,26.73
2022-08-04T22:18:20.536Z,26.92
2022-08-04T22:20:28.397Z,26.60
2022-08-04T22:22:35.492Z,26.84
2022-08-04T22:24:40.499Z,26.13
2022-08-04T22:26:43.285Z,25.97
2022-08-04T22:28:46.376Z,26.42
2022-08-04T22:30:52.265Z,25.90
2022-08-04T22:32:55.193Z,26.57
2022-08-04T22:34:57.749Z,26.56
2022-08-04T22:37:35.597Z,26.35
2022-08-04T22:39:56.510Z,26.41
2022-08-04T22:42:03.341Z,26.47
2022-08-04T22:44:08.261Z,26.41
2022-08-04T22:46:26.824Z,26.52
2022-08-04T22:48:32.148Z,26.09
2022-08-04T22:50:34.918Z,25.81
2022-08-04T22:52:51.637Z,25.88
2022-08-04T22:55:06.292Z,26.33
2022-08-04T22:57:21.197Z,26.41
2022-08-04T22:59:44.489Z,26.09
2022-08-04T23:01:57.905Z,26.28
2022-08-04T23:04:04.501Z,25.70
2022-08-04T23:06:11.488Z,26.27
2022-08-04T23:08:15.336Z,26.20
2022-08-04T23:10:25.704Z,26.17
2022-08-04T23:12:30.767Z,26.14
2022-08-04T23:14:36.775Z,25.98
2022-08-04T23:16:40.887Z,25.98
2022-08-04T23:18:48.375Z,26.06
2022-08-04T23:20:52.875Z,25.49
2022-08-04T23:22:55.788Z,25.99
2022-08-04T23:24:58.576Z,25.45
2022-08-04T23:27:02.435Z,25.97
2022-08-04T23:29:05.295Z,25.89
2022-08-04T23:31:10.310Z,25.86
2022-08-04T23:33:13.101Z,25.83
2022-08-04T23:35:18.610Z,25.76
2022-08-04T23:37:25.839Z,25.65
2022-08-04T23:40:03.889Z,25.26
2022-08-04T23:42:01.754Z,24.85
2022-08-04T23:44:05.697Z,25.53
2022-08-04T23:46:13.283Z,25.75
2022-08-04T23:48:19.189Z,25.59
2022-08-04T23:50:35.804Z,25.50
2022-08-04T23:52:43.442Z,25.48
2022-08-04T23:54:46.066Z,25.20
2022-08-04T23:56:52.867Z,25.40
2022-08-04T23:58:57.302Z,25.45
